sensor_id;sensor_type;location;lat;lon;timestamp;P1;durP1;ratioP1;P2;durP2;ratioP2
55423;SDS011;41294;42.666;23.350;2023-02-15T00:00:52;35.77;;;21.53;;
55423;SDS011;41294;42.666;23.350;2023-02-15T00:03:20;34.97;;;20.67;;
55423;SDS011;41294;42.666;23.350;2023-02-15T00:05:45;34.10;;;20.53;;
55423;SDS011;41294;42.666;23.350;2023-02-15T00:08:11;33.97;;;20.53;;
55423;SDS011;41294;42.666;23.350;2023-02-15T00:10:36;38.07;;;20.60;;
55423;SDS011;41294;42.666;23.350;2023-02-15T00:13:02;36.20;;;20.40;;
55423;SDS011;41294;42.666;23.350;2023-02-15T00:15:27;35.00;;;20.23;;
55423;SDS011;41294;42.666;23.350;2023-02-15T00:17:52;43.53;;;22.10;;
55423;SDS011;41294;42.666;23.350;2023-02-15T00:20:18;35.20;;;20.33;;
55423;SDS011;41294;42.666;23.350;2023-02-15T00:22:44;36.83;;;19.97;;
55423;SDS011;41294;42.666;23.350;2023-02-15T00:25:09;36.77;;;19.90;;
55423;SDS011;41294;42.666;23.350;2023-02-15T00:27:35;34.83;;;21.07;;
55423;SDS011;41294;42.666;23.350;2023-02-15T00:30:00;39.87;;;20.87;;
55423;SDS011;41294;42.666;23.350;2023-02-15T00:32:26;36.10;;;20.07;;
55423;SDS011;41294;42.666;23.350;2023-02-15T00:34:51;34.50;;;19.67;;
55423;SDS011;41294;42.666;23.350;2023-02-15T00:37:16;35.33;;;21.07;;
55423;SDS011;41294;42.666;23.350;2023-02-15T00:39:42;35.60;;;20.37;;
55423;SDS011;41294;42.666;23.350;2023-02-15T00:42:07;34.07;;;20.63;;
55423;SDS011;41294;42.666;23.350;2023-02-15T00:44:32;37.83;;;19.43;;
55423;SDS011;41294;42.666;23.350;2023-02-15T00:46:58;31.10;;;18.37;;
55423;SDS011;41294;42.666;23.350;2023-02-15T00:49:23;33.97;;;19.90;;
55423;SDS011;41294;42.666;23.350;2023-02-15T00:51:48;34.13;;;19.87;;
55423;SDS011;41294;42.666;23.350;2023-02-15T00:54:14;32.13;;;20.13;;
55423;SDS011;41294;42.666;23.350;2023-02-15T00:56:39;32.20;;;19.83;;
55423;SDS011;41294;42.666;23.350;2023-02-15T00:59:04;34.30;;;20.00;;
55423;SDS011;41294;42.666;23.350;2023-02-15T01:01:30;30.73;;;18.77;;
55423;SDS011;41294;42.666;23.350;2023-02-15T01:03:55;32.40;;;18.57;;
55423;SDS011;41294;42.666;23.350;2023-02-15T01:06:21;30.87;;;19.17;;
55423;SDS011;41294;42.666;23.350;2023-02-15T01:08:47;31.37;;;18.47;;
55423;SDS011;41294;42.666;23.350;2023-02-15T01:11:13;35.00;;;20.83;;
55423;SDS011;41294;42.666;23.350;2023-02-15T01:13:46;33.43;;;20.00;;
55423;SDS011;41294;42.666;23.350;2023-02-15T01:16:13;30.07;;;18.23;;
55423;SDS011;41294;42.666;23.350;2023-02-15T01:18:38;33.30;;;18.27;;
55423;SDS011;41294;42.666;23.350;2023-02-15T01:21:11;30.97;;;19.17;;
55423;SDS011;41294;42.666;23.350;2023-02-15T01:23:38;31.40;;;18.57;;
55423;SDS011;41294;42.666;23.350;2023-02-15T01:26:04;28.17;;;17.90;;
55423;SDS011;41294;42.666;23.350;2023-02-15T01:28:30;28.93;;;18.67;;
55423;SDS011;41294;42.666;23.350;2023-02-15T01:30:56;35.50;;;19.20;;
55423;SDS011;41294;42.666;23.350;2023-02-15T01:33:21;32.17;;;19.00;;
55423;SDS011;41294;42.666;23.350;2023-02-15T01:35:46;34.80;;;20.70;;
55423;SDS011;41294;42.666;23.350;2023-02-15T01:38:12;33.33;;;19.20;;
55423;SDS011;41294;42.666;23.350;2023-02-15T01:40:38;36.07;;;19.90;;
55423;SDS011;41294;42.666;23.350;2023-02-15T01:43:07;33.63;;;18.27;;
55423;SDS011;41294;42.666;23.350;2023-02-15T01:45:36;32.63;;;19.23;;
55423;SDS011;41294;42.666;23.350;2023-02-15T01:50:43;34.10;;;19.60;;
55423;SDS011;41294;42.666;23.350;2023-02-15T01:58:29;30.60;;;17.70;;
55423;SDS011;41294;42.666;23.350;2023-02-15T02:00:57;33.20;;;18.47;;
55423;SDS011;41294;42.666;23.350;2023-02-15T02:03:36;34.03;;;19.67;;
55423;SDS011;41294;42.666;23.350;2023-02-15T02:06:08;31.40;;;19.13;;
55423;SDS011;41294;42.666;23.350;2023-02-15T02:08:34;34.63;;;19.90;;
55423;SDS011;41294;42.666;23.350;2023-02-15T02:11:00;30.90;;;18.23;;
55423;SDS011;41294;42.666;23.350;2023-02-15T02:13:25;37.60;;;19.07;;
55423;SDS011;41294;42.666;23.350;2023-02-15T02:15:53;29.97;;;18.10;;
55423;SDS011;41294;42.666;23.350;2023-02-15T02:21:28;31.70;;;19.23;;
55423;SDS011;41294;42.666;23.350;2023-02-15T02:38:05;34.47;;;19.33;;
55423;SDS011;41294;42.666;23.350;2023-02-15T02:40:49;31.17;;;18.87;;
55423;SDS011;41294;42.666;23.350;2023-02-15T02:43:29;31.57;;;17.70;;
55423;SDS011;41294;42.666;23.350;2023-02-15T02:46:28;31.17;;;17.80;;
55423;SDS011;41294;42.666;23.350;2023-02-15T02:48:59;29.83;;;17.60;;
55423;SDS011;41294;42.666;23.350;2023-02-15T02:51:26;27.93;;;17.63;;
55423;SDS011;41294;42.666;23.350;2023-02-15T02:53:53;35.57;;;17.97;;
55423;SDS011;41294;42.666;23.350;2023-02-15T02:58:58;30.93;;;17.83;;
55423;SDS011;41294;42.666;23.350;2023-02-15T03:01:29;30.90;;;17.63;;
55423;SDS011;41294;42.666;23.350;2023-02-15T03:04:00;35.07;;;18.47;;
55423;SDS011;41294;42.666;23.350;2023-02-15T03:11:48;30.47;;;17.87;;
55423;SDS011;41294;42.666;23.350;2023-02-15T03:14:15;29.63;;;16.70;;
55423;SDS011;41294;42.666;23.350;2023-02-15T03:16:43;28.40;;;17.37;;
55423;SDS011;41294;42.666;23.350;2023-02-15T03:19:13;30.40;;;17.27;;
55423;SDS011;41294;42.666;23.350;2023-02-15T03:21:44;29.13;;;16.70;;
55423;SDS011;41294;42.666;23.350;2023-02-15T03:24:32;29.17;;;18.80;;
55423;SDS011;41294;42.666;23.350;2023-02-15T03:27:04;29.90;;;16.40;;
55423;SDS011;41294;42.666;23.350;2023-02-15T03:29:35;28.00;;;17.67;;
55423;SDS011;41294;42.666;23.350;2023-02-15T03:32:03;27.30;;;17.70;;
55423;SDS011;41294;42.666;23.350;2023-02-15T03:34:32;28.53;;;16.70;;
55423;SDS011;41294;42.666;23.350;2023-02-15T03:42:13;28.93;;;16.60;;
55423;SDS011;41294;42.666;23.350;2023-02-15T03:45:06;30.00;;;17.03;;
55423;SDS011;41294;42.666;23.350;2023-02-15T03:47:41;27.47;;;17.10;;
55423;SDS011;41294;42.666;23.350;2023-02-15T03:50:15;27.30;;;15.70;;
55423;SDS011;41294;42.666;23.350;2023-02-15T03:53:03;24.67;;;15.47;;
55423;SDS011;41294;42.666;23.350;2023-02-15T03:55:33;26.83;;;15.33;;
55423;SDS011;41294;42.666;23.350;2023-02-15T03:57:59;29.23;;;17.93;;
55423;SDS011;41294;42.666;23.350;2023-02-15T04:00:44;27.23;;;16.90;;
55423;SDS011;41294;42.666;23.350;2023-02-15T04:03:53;27.20;;;16.73;;
55423;SDS011;41294;42.666;23.350;2023-02-15T04:06:24;28.53;;;16.93;;
55423;SDS011;41294;42.666;23.350;2023-02-15T04:08:49;27.90;;;18.03;;
55423;SDS011;41294;42.666;23.350;2023-02-15T04:11:33;27.17;;;16.80;;
55423;SDS011;41294;42.666;23.350;2023-02-15T04:13:58;27.33;;;16.57;;
55423;SDS011;41294;42.666;23.350;2023-02-15T04:16:44;25.70;;;15.70;;
55423;SDS011;41294;42.666;23.350;2023-02-15T04:19:09;27.73;;;16.37;;
55423;SDS011;41294;42.666;23.350;2023-02-15T04:21:53;25.83;;;15.73;;
55423;SDS011;41294;42.666;23.350;2023-02-15T04:24:37;25.97;;;16.20;;
55423;SDS011;41294;42.666;23.350;2023-02-15T04:27:21;23.93;;;15.37;;
55423;SDS011;41294;42.666;23.350;2023-02-15T04:29:46;25.80;;;15.60;;
55423;SDS011;41294;42.666;23.350;2023-02-15T04:32:14;32.97;;;19.43;;
55423;SDS011;41294;42.666;23.350;2023-02-15T04:34:40;28.40;;;17.10;;
55423;SDS011;41294;42.666;23.350;2023-02-15T04:37:05;31.27;;;17.17;;
55423;SDS011;41294;42.666;23.350;2023-02-15T04:39:31;25.13;;;16.33;;
55423;SDS011;41294;42.666;23.350;2023-02-15T04:41:57;28.67;;;16.53;;
55423;SDS011;41294;42.666;23.350;2023-02-15T04:44:22;27.90;;;16.27;;
55423;SDS011;41294;42.666;23.350;2023-02-15T04:46:47;29.57;;;16.83;;
55423;SDS011;41294;42.666;23.350;2023-02-15T04:49:13;25.77;;;15.47;;
55423;SDS011;41294;42.666;23.350;2023-02-15T04:51:38;27.13;;;16.97;;
55423;SDS011;41294;42.666;23.350;2023-02-15T04:54:04;29.43;;;17.13;;
55423;SDS011;41294;42.666;23.350;2023-02-15T04:56:29;29.07;;;17.43;;
55423;SDS011;41294;42.666;23.350;2023-02-15T04:58:55;24.63;;;15.90;;
55423;SDS011;41294;42.666;23.350;2023-02-15T05:01:20;27.87;;;16.67;;
55423;SDS011;41294;42.666;23.350;2023-02-15T05:03:47;26.37;;;16.30;;
55423;SDS011;41294;42.666;23.350;2023-02-15T05:06:12;24.07;;;15.50;;
55423;SDS011;41294;42.666;23.350;2023-02-15T05:08:37;27.37;;;17.33;;
55423;SDS011;41294;42.666;23.350;2023-02-15T05:11:03;27.77;;;17.10;;
55423;SDS011;41294;42.666;23.350;2023-02-15T05:13:29;29.67;;;17.10;;
55423;SDS011;41294;42.666;23.350;2023-02-15T05:15:54;28.27;;;16.47;;
55423;SDS011;41294;42.666;23.350;2023-02-15T05:18:20;30.23;;;17.13;;
55423;SDS011;41294;42.666;23.350;2023-02-15T05:20:47;29.37;;;16.23;;
55423;SDS011;41294;42.666;23.350;2023-02-15T05:23:13;28.00;;;17.50;;
55423;SDS011;41294;42.666;23.350;2023-02-15T05:25:38;26.63;;;16.23;;
55423;SDS011;41294;42.666;23.350;2023-02-15T05:28:23;26.73;;;17.07;;
55423;SDS011;41294;42.666;23.350;2023-02-15T05:31:08;29.93;;;16.67;;
55423;SDS011;41294;42.666;23.350;2023-02-15T05:33:36;25.07;;;16.33;;
55423;SDS011;41294;42.666;23.350;2023-02-15T05:36:04;26.87;;;17.77;;
55423;SDS011;41294;42.666;23.350;2023-02-15T05:38:30;25.30;;;16.83;;
55423;SDS011;41294;42.666;23.350;2023-02-15T05:40:56;30.67;;;18.50;;
55423;SDS011;41294;42.666;23.350;2023-02-15T05:43:22;29.00;;;17.90;;
55423;SDS011;41294;42.666;23.350;2023-02-15T05:45:48;27.87;;;17.20;;
55423;SDS011;41294;42.666;23.350;2023-02-15T05:48:15;27.00;;;16.83;;
55423;SDS011;41294;42.666;23.350;2023-02-15T05:50:42;27.47;;;17.53;;
55423;SDS011;41294;42.666;23.350;2023-02-15T05:53:07;27.67;;;15.50;;
55423;SDS011;41294;42.666;23.350;2023-02-15T05:55:33;29.43;;;17.07;;
55423;SDS011;41294;42.666;23.350;2023-02-15T05:57:58;27.30;;;17.67;;
55423;SDS011;41294;42.666;23.350;2023-02-15T06:00:24;26.07;;;16.83;;
55423;SDS011;41294;42.666;23.350;2023-02-15T06:02:50;27.30;;;15.87;;
55423;SDS011;41294;42.666;23.350;2023-02-15T06:05:15;24.17;;;16.70;;
55423;SDS011;41294;42.666;23.350;2023-02-15T06:07:44;26.83;;;16.47;;
55423;SDS011;41294;42.666;23.350;2023-02-15T06:10:10;27.43;;;16.30;;
55423;SDS011;41294;42.666;23.350;2023-02-15T06:12:35;27.93;;;17.13;;
55423;SDS011;41294;42.666;23.350;2023-02-15T06:15:02;29.40;;;17.77;;
55423;SDS011;41294;42.666;23.350;2023-02-15T06:17:28;32.73;;;18.03;;
55423;SDS011;41294;42.666;23.350;2023-02-15T06:19:54;28.37;;;17.10;;
55423;SDS011;41294;42.666;23.350;2023-02-15T06:22:20;30.30;;;16.33;;
55423;SDS011;41294;42.666;23.350;2023-02-15T06:24:46;25.53;;;15.63;;
55423;SDS011;41294;42.666;23.350;2023-02-15T06:27:12;28.00;;;16.33;;
55423;SDS011;41294;42.666;23.350;2023-02-15T06:29:37;23.13;;;16.13;;
55423;SDS011;41294;42.666;23.350;2023-02-15T06:32:03;28.93;;;16.63;;
55423;SDS011;41294;42.666;23.350;2023-02-15T06:34:29;29.33;;;18.20;;
55423;SDS011;41294;42.666;23.350;2023-02-15T06:36:55;25.43;;;15.37;;
55423;SDS011;41294;42.666;23.350;2023-02-15T06:39:21;26.33;;;16.70;;
55423;SDS011;41294;42.666;23.350;2023-02-15T06:41:47;25.50;;;14.73;;
55423;SDS011;41294;42.666;23.350;2023-02-15T06:44:12;23.63;;;14.30;;
55423;SDS011;41294;42.666;23.350;2023-02-15T06:46:38;26.70;;;17.23;;
55423;SDS011;41294;42.666;23.350;2023-02-15T06:49:04;24.40;;;14.70;;
55423;SDS011;41294;42.666;23.350;2023-02-15T06:51:29;24.10;;;14.90;;
55423;SDS011;41294;42.666;23.350;2023-02-15T06:53:55;23.17;;;15.23;;
55423;SDS011;41294;42.666;23.350;2023-02-15T06:56:20;28.17;;;16.20;;
55423;SDS011;41294;42.666;23.350;2023-02-15T06:58:45;24.50;;;15.23;;
55423;SDS011;41294;42.666;23.350;2023-02-15T07:01:13;21.73;;;14.73;;
55423;SDS011;41294;42.666;23.350;2023-02-15T07:03:39;21.87;;;13.93;;
55423;SDS011;41294;42.666;23.350;2023-02-15T07:06:04;23.00;;;14.90;;
55423;SDS011;41294;42.666;23.350;2023-02-15T07:08:34;26.97;;;14.53;;
55423;SDS011;41294;42.666;23.350;2023-02-15T07:11:00;23.47;;;14.13;;
55423;SDS011;41294;42.666;23.350;2023-02-15T07:13:45;22.90;;;15.13;;
55423;SDS011;41294;42.666;23.350;2023-02-15T07:16:11;22.27;;;14.47;;
55423;SDS011;41294;42.666;23.350;2023-02-15T07:18:37;21.37;;;13.03;;
55423;SDS011;41294;42.666;23.350;2023-02-15T07:21:03;19.17;;;12.70;;
55423;SDS011;41294;42.666;23.350;2023-02-15T07:23:29;22.63;;;14.43;;
55423;SDS011;41294;42.666;23.350;2023-02-15T07:25:57;24.00;;;14.07;;
55423;SDS011;41294;42.666;23.350;2023-02-15T07:28:24;20.93;;;13.87;;
55423;SDS011;41294;42.666;23.350;2023-02-15T07:30:49;20.90;;;12.53;;
55423;SDS011;41294;42.666;23.350;2023-02-15T07:33:15;20.27;;;12.57;;
55423;SDS011;41294;42.666;23.350;2023-02-15T07:35:49;21.63;;;12.90;;
55423;SDS011;41294;42.666;23.350;2023-02-15T07:38:18;18.30;;;12.57;;
55423;SDS011;41294;42.666;23.350;2023-02-15T07:40:44;18.73;;;12.67;;
55423;SDS011;41294;42.666;23.350;2023-02-15T07:43:10;19.77;;;12.97;;
55423;SDS011;41294;42.666;23.350;2023-02-15T07:45:36;18.33;;;12.70;;
55423;SDS011;41294;42.666;23.350;2023-02-15T07:48:02;20.67;;;13.63;;
55423;SDS011;41294;42.666;23.350;2023-02-15T07:50:28;18.77;;;13.10;;
55423;SDS011;41294;42.666;23.350;2023-02-15T07:52:54;19.77;;;13.03;;
55423;SDS011;41294;42.666;23.350;2023-02-15T07:55:19;25.13;;;15.07;;
55423;SDS011;41294;42.666;23.350;2023-02-15T07:57:46;23.70;;;14.63;;
55423;SDS011;41294;42.666;23.350;2023-02-15T08:00:13;21.33;;;14.23;;
55423;SDS011;41294;42.666;23.350;2023-02-15T08:02:39;21.07;;;13.73;;
55423;SDS011;41294;42.666;23.350;2023-02-15T08:05:05;20.50;;;12.87;;
55423;SDS011;41294;42.666;23.350;2023-02-15T08:07:31;20.33;;;13.33;;
55423;SDS011;41294;42.666;23.350;2023-02-15T08:09:56;18.03;;;12.73;;
55423;SDS011;41294;42.666;23.350;2023-02-15T08:12:22;21.57;;;12.63;;
55423;SDS011;41294;42.666;23.350;2023-02-15T08:14:47;17.90;;;12.57;;
55423;SDS011;41294;42.666;23.350;2023-02-15T08:17:13;17.23;;;12.87;;
55423;SDS011;41294;42.666;23.350;2023-02-15T08:19:38;20.50;;;13.43;;
55423;SDS011;41294;42.666;23.350;2023-02-15T08:22:07;19.90;;;12.63;;
55423;SDS011;41294;42.666;23.350;2023-02-15T08:24:37;22.63;;;12.90;;
55423;SDS011;41294;42.666;23.350;2023-02-15T08:27:02;19.73;;;12.43;;
55423;SDS011;41294;42.666;23.350;2023-02-15T08:29:29;18.23;;;12.77;;
55423;SDS011;41294;42.666;23.350;2023-02-15T08:31:57;21.60;;;12.87;;
55423;SDS011;41294;42.666;23.350;2023-02-15T08:34:27;23.20;;;12.90;;
55423;SDS011;41294;42.666;23.350;2023-02-15T08:36:55;20.00;;;12.97;;
55423;SDS011;41294;42.666;23.350;2023-02-15T08:39:21;22.83;;;13.20;;
55423;SDS011;41294;42.666;23.350;2023-02-15T08:41:47;19.13;;;12.30;;
55423;SDS011;41294;42.666;23.350;2023-02-15T08:44:14;20.70;;;12.50;;
55423;SDS011;41294;42.666;23.350;2023-02-15T08:46:41;19.60;;;13.53;;
55423;SDS011;41294;42.666;23.350;2023-02-15T08:49:08;20.20;;;13.53;;
55423;SDS011;41294;42.666;23.350;2023-02-15T08:51:35;18.40;;;12.50;;
55423;SDS011;41294;42.666;23.350;2023-02-15T08:54:06;18.27;;;12.47;;
55423;SDS011;41294;42.666;23.350;2023-02-15T08:56:35;22.43;;;14.00;;
55423;SDS011;41294;42.666;23.350;2023-02-15T08:59:02;22.23;;;12.77;;
55423;SDS011;41294;42.666;23.350;2023-02-15T09:01:31;24.13;;;14.00;;
55423;SDS011;41294;42.666;23.350;2023-02-15T09:03:58;18.53;;;12.00;;
55423;SDS011;41294;42.666;23.350;2023-02-15T09:06:35;20.13;;;12.30;;
55423;SDS011;41294;42.666;23.350;2023-02-15T09:09:02;18.90;;;12.57;;
55423;SDS011;41294;42.666;23.350;2023-02-15T09:11:29;19.13;;;12.03;;
55423;SDS011;41294;42.666;23.350;2023-02-15T09:13:59;21.00;;;12.27;;
55423;SDS011;41294;42.666;23.350;2023-02-15T09:16:28;15.00;;;11.43;;
55423;SDS011;41294;42.666;23.350;2023-02-15T09:18:56;16.77;;;11.77;;
55423;SDS011;41294;42.666;23.350;2023-02-15T09:21:22;19.77;;;11.80;;
55423;SDS011;41294;42.666;23.350;2023-02-15T09:23:50;15.57;;;10.73;;
55423;SDS011;41294;42.666;23.350;2023-02-15T09:26:17;16.57;;;12.07;;
55423;SDS011;41294;42.666;23.350;2023-02-15T09:28:45;15.33;;;11.13;;
55423;SDS011;41294;42.666;23.350;2023-02-15T09:33:40;18.20;;;12.27;;
55423;SDS011;41294;42.666;23.350;2023-02-15T09:38:44;17.47;;;11.83;;
55423;SDS011;41294;42.666;23.350;2023-02-15T09:58:37;24.27;;;13.17;;
55423;SDS011;41294;42.666;23.350;2023-02-15T10:12:27;16.03;;;12.47;;
55423;SDS011;41294;42.666;23.350;2023-02-15T10:17:52;26.40;;;14.83;;
55423;SDS011;41294;42.666;23.350;2023-02-15T10:20:47;25.20;;;14.30;;
55423;SDS011;41294;42.666;23.350;2023-02-15T10:26:21;20.67;;;12.93;;
55423;SDS011;41294;42.666;23.350;2023-02-15T10:28:57;24.83;;;14.43;;
55423;SDS011;41294;42.666;23.350;2023-02-15T10:34:20;22.20;;;14.23;;
55423;SDS011;41294;42.666;23.350;2023-02-15T10:42:30;20.67;;;14.27;;
55423;SDS011;41294;42.666;23.350;2023-02-15T10:45:18;23.93;;;13.90;;
55423;SDS011;41294;42.666;23.350;2023-02-15T10:50:21;20.73;;;15.37;;
55423;SDS011;41294;42.666;23.350;2023-02-15T11:01:13;20.13;;;13.53;;
55423;SDS011;41294;42.666;23.350;2023-02-15T11:03:51;22.17;;;13.33;;
55423;SDS011;41294;42.666;23.350;2023-02-15T11:06:39;19.57;;;13.07;;
55423;SDS011;41294;42.666;23.350;2023-02-15T11:09:13;21.00;;;13.90;;
55423;SDS011;41294;42.666;23.350;2023-02-15T11:11:43;21.00;;;13.57;;
55423;SDS011;41294;42.666;23.350;2023-02-15T11:17:13;21.73;;;13.60;;
55423;SDS011;41294;42.666;23.350;2023-02-15T11:22:39;17.67;;;13.40;;
55423;SDS011;41294;42.666;23.350;2023-02-15T11:25:14;18.83;;;13.50;;
55423;SDS011;41294;42.666;23.350;2023-02-15T11:28:00;23.90;;;14.27;;
55423;SDS011;41294;42.666;23.350;2023-02-15T11:30:36;21.43;;;15.30;;
55423;SDS011;41294;42.666;23.350;2023-02-15T11:33:12;20.23;;;13.47;;
55423;SDS011;41294;42.666;23.350;2023-02-15T11:35:53;20.37;;;14.33;;
55423;SDS011;41294;42.666;23.350;2023-02-15T11:38:32;22.03;;;14.00;;
55423;SDS011;41294;42.666;23.350;2023-02-15T11:41:05;18.20;;;13.63;;
55423;SDS011;41294;42.666;23.350;2023-02-15T11:46:10;20.77;;;14.30;;
55423;SDS011;41294;42.666;23.350;2023-02-15T11:48:38;24.77;;;15.30;;
55423;SDS011;41294;42.666;23.350;2023-02-15T11:51:04;23.07;;;14.60;;
55423;SDS011;41294;42.666;23.350;2023-02-15T11:53:32;20.90;;;14.50;;
55423;SDS011;41294;42.666;23.350;2023-02-15T11:56:01;20.60;;;14.07;;
55423;SDS011;41294;42.666;23.350;2023-02-15T12:04:01;24.10;;;14.93;;
55423;SDS011;41294;42.666;23.350;2023-02-15T12:06:42;24.27;;;14.70;;
55423;SDS011;41294;42.666;23.350;2023-02-15T12:09:24;21.30;;;14.63;;
55423;SDS011;41294;42.666;23.350;2023-02-15T12:12:21;21.03;;;14.10;;
55423;SDS011;41294;42.666;23.350;2023-02-15T12:14:50;20.17;;;14.53;;
55423;SDS011;41294;42.666;23.350;2023-02-15T12:17:18;21.60;;;14.13;;
55423;SDS011;41294;42.666;23.350;2023-02-15T12:19:46;20.80;;;14.90;;
55423;SDS011;41294;42.666;23.350;2023-02-15T12:24:56;21.90;;;13.83;;
55423;SDS011;41294;42.666;23.350;2023-02-15T12:27:32;23.10;;;14.70;;
55423;SDS011;41294;42.666;23.350;2023-02-15T12:30:00;20.00;;;13.70;;
55423;SDS011;41294;42.666;23.350;2023-02-15T12:32:31;24.23;;;14.20;;
55423;SDS011;41294;42.666;23.350;2023-02-15T12:35:01;23.10;;;14.20;;
55423;SDS011;41294;42.666;23.350;2023-02-15T12:37:39;20.27;;;13.80;;
55423;SDS011;41294;42.666;23.350;2023-02-15T12:40:24;24.40;;;15.43;;
55423;SDS011;41294;42.666;23.350;2023-02-15T12:42:52;19.50;;;14.30;;
55423;SDS011;41294;42.666;23.350;2023-02-15T12:45:31;22.77;;;15.30;;
55423;SDS011;41294;42.666;23.350;2023-02-15T12:48:08;22.07;;;15.03;;
55423;SDS011;41294;42.666;23.350;2023-02-15T12:50:34;22.23;;;16.03;;
55423;SDS011;41294;42.666;23.350;2023-02-15T12:53:16;23.30;;;15.00;;
55423;SDS011;41294;42.666;23.350;2023-02-15T12:56:00;19.70;;;14.83;;
55423;SDS011;41294;42.666;23.350;2023-02-15T12:58:31;25.10;;;15.90;;
55423;SDS011;41294;42.666;23.350;2023-02-15T13:01:14;23.23;;;15.60;;
55423;SDS011;41294;42.666;23.350;2023-02-15T13:04:03;22.13;;;14.03;;
55423;SDS011;41294;42.666;23.350;2023-02-15T13:06:32;22.57;;;13.73;;
55423;SDS011;41294;42.666;23.350;2023-02-15T13:12:08;18.27;;;13.50;;
55423;SDS011;41294;42.666;23.350;2023-02-15T13:14:43;25.30;;;15.20;;
55423;SDS011;41294;42.666;23.350;2023-02-15T13:17:10;22.00;;;14.70;;
55423;SDS011;41294;42.666;23.350;2023-02-15T13:19:45;22.37;;;14.80;;
55423;SDS011;41294;42.666;23.350;2023-02-15T13:22:14;22.60;;;15.30;;
55423;SDS011;41294;42.666;23.350;2023-02-15T13:25:01;21.90;;;14.63;;
55423;SDS011;41294;42.666;23.350;2023-02-15T13:27:36;23.23;;;15.07;;
55423;SDS011;41294;42.666;23.350;2023-02-15T13:30:50;23.43;;;14.87;;
55423;SDS011;41294;42.666;23.350;2023-02-15T13:33:06;23.17;;;15.77;;
55423;SDS011;41294;42.666;23.350;2023-02-15T13:35:46;22.77;;;15.13;;
55423;SDS011;41294;42.666;23.350;2023-02-15T13:40:58;21.13;;;14.57;;
55423;SDS011;41294;42.666;23.350;2023-02-15T13:43:38;22.13;;;15.13;;
55423;SDS011;41294;42.666;23.350;2023-02-15T13:46:23;20.93;;;14.37;;
55423;SDS011;41294;42.666;23.350;2023-02-15T13:48:59;22.67;;;14.60;;
55423;SDS011;41294;42.666;23.350;2023-02-15T13:57:19;22.50;;;14.80;;
55423;SDS011;41294;42.666;23.350;2023-02-15T14:00:00;23.70;;;15.00;;
55423;SDS011;41294;42.666;23.350;2023-02-15T14:19:48;24.80;;;15.20;;
55423;SDS011;41294;42.666;23.350;2023-02-15T14:28:04;23.47;;;15.03;;
55423;SDS011;41294;42.666;23.350;2023-02-15T14:30:38;23.47;;;14.87;;
55423;SDS011;41294;42.666;23.350;2023-02-15T14:36:02;24.47;;;15.47;;
55423;SDS011;41294;42.666;23.350;2023-02-15T14:41:59;23.47;;;15.37;;
55423;SDS011;41294;42.666;23.350;2023-02-15T14:44:15;23.80;;;15.67;;
55423;SDS011;41294;42.666;23.350;2023-02-15T14:46:55;22.13;;;15.10;;
55423;SDS011;41294;42.666;23.350;2023-02-15T14:49:32;25.93;;;16.03;;
55423;SDS011;41294;42.666;23.350;2023-02-15T14:52:10;25.30;;;16.33;;
55423;SDS011;41294;42.666;23.350;2023-02-15T15:02:31;26.23;;;16.97;;
55423;SDS011;41294;42.666;23.350;2023-02-15T15:08:20;24.20;;;15.47;;
55423;SDS011;41294;42.666;23.350;2023-02-15T15:10:50;25.10;;;16.80;;
55423;SDS011;41294;42.666;23.350;2023-02-15T15:15:56;25.10;;;16.17;;
55423;SDS011;41294;42.666;23.350;2023-02-15T15:18:43;28.50;;;15.80;;
55423;SDS011;41294;42.666;23.350;2023-02-15T15:32:54;26.40;;;16.63;;
55423;SDS011;41294;42.666;23.350;2023-02-15T15:47:04;24.37;;;16.17;;
55423;SDS011;41294;42.666;23.350;2023-02-15T15:49:34;25.33;;;16.30;;
55423;SDS011;41294;42.666;23.350;2023-02-15T15:52:07;27.07;;;16.40;;
55423;SDS011;41294;42.666;23.350;2023-02-15T15:54:38;25.50;;;16.77;;
55423;SDS011;41294;42.666;23.350;2023-02-15T15:57:05;31.23;;;18.10;;
55423;SDS011;41294;42.666;23.350;2023-02-15T15:59:43;28.60;;;16.73;;
55423;SDS011;41294;42.666;23.350;2023-02-15T16:02:11;31.50;;;17.87;;
55423;SDS011;41294;42.666;23.350;2023-02-15T16:04:40;25.47;;;16.43;;
55423;SDS011;41294;42.666;23.350;2023-02-15T16:09:41;31.13;;;18.47;;
55423;SDS011;41294;42.666;23.350;2023-02-15T16:12:18;31.57;;;18.17;;
55423;SDS011;41294;42.666;23.350;2023-02-15T16:14:44;29.60;;;18.17;;
55423;SDS011;41294;42.666;23.350;2023-02-15T16:17:36;26.87;;;16.67;;
55423;SDS011;41294;42.666;23.350;2023-02-15T16:20:03;27.77;;;16.53;;
55423;SDS011;41294;42.666;23.350;2023-02-15T16:22:29;29.90;;;17.53;;
55423;SDS011;41294;42.666;23.350;2023-02-15T16:27:49;35.37;;;18.53;;
55423;SDS011;41294;42.666;23.350;2023-02-15T16:33:14;24.10;;;16.73;;
55423;SDS011;41294;42.666;23.350;2023-02-15T16:35:42;33.10;;;17.73;;
55423;SDS011;41294;42.666;23.350;2023-02-15T16:39:20;29.03;;;17.20;;
55423;SDS011;41294;42.666;23.350;2023-02-15T16:41:23;28.77;;;17.27;;
55423;SDS011;41294;42.666;23.350;2023-02-15T16:43:53;27.47;;;16.67;;
55423;SDS011;41294;42.666;23.350;2023-02-15T16:46:25;26.63;;;17.40;;
55423;SDS011;41294;42.666;23.350;2023-02-15T16:48:53;25.40;;;17.03;;
55423;SDS011;41294;42.666;23.350;2023-02-15T16:51:24;27.57;;;18.33;;
55423;SDS011;41294;42.666;23.350;2023-02-15T16:53:52;30.00;;;17.90;;
55423;SDS011;41294;42.666;23.350;2023-02-15T16:56:29;27.00;;;17.50;;
55423;SDS011;41294;42.666;23.350;2023-02-15T16:58:57;31.10;;;17.67;;
55423;SDS011;41294;42.666;23.350;2023-02-15T17:01:25;29.57;;;16.17;;
55423;SDS011;41294;42.666;23.350;2023-02-15T17:07:02;27.40;;;17.40;;
55423;SDS011;41294;42.666;23.350;2023-02-15T17:09:48;32.97;;;17.87;;
55423;SDS011;41294;42.666;23.350;2023-02-15T17:20:47;34.07;;;17.43;;
55423;SDS011;41294;42.666;23.350;2023-02-15T17:23:22;30.03;;;17.93;;
55423;SDS011;41294;42.666;23.350;2023-02-15T17:25:55;28.97;;;16.47;;
55423;SDS011;41294;42.666;23.350;2023-02-15T17:28:22;27.63;;;17.47;;
55423;SDS011;41294;42.666;23.350;2023-02-15T17:30:51;30.10;;;17.53;;
55423;SDS011;41294;42.666;23.350;2023-02-15T17:33:20;30.93;;;17.83;;
55423;SDS011;41294;42.666;23.350;2023-02-15T17:36:04;33.93;;;17.77;;
55423;SDS011;41294;42.666;23.350;2023-02-15T17:38:34;33.77;;;19.20;;
55423;SDS011;41294;42.666;23.350;2023-02-15T17:41:00;40.03;;;19.17;;
55423;SDS011;41294;42.666;23.350;2023-02-15T17:43:25;29.87;;;18.33;;
55423;SDS011;41294;42.666;23.350;2023-02-15T17:45:51;30.67;;;17.50;;
55423;SDS011;41294;42.666;23.350;2023-02-15T17:48:35;30.63;;;19.13;;
55423;SDS011;41294;42.666;23.350;2023-02-15T17:51:04;29.80;;;17.57;;
55423;SDS011;41294;42.666;23.350;2023-02-15T17:53:32;28.00;;;18.60;;
55423;SDS011;41294;42.666;23.350;2023-02-15T17:55:57;33.63;;;17.83;;
55423;SDS011;41294;42.666;23.350;2023-02-15T17:58:23;31.03;;;18.40;;